Time;durP1;ratioP1;P1;durP2;ratioP2;P2;SDS_P1;SDS_P2;PMS_P1;PMS_P2;Temp;Humidity;BMP_temperature;BMP_pressure;BME280_temperature;BME280_humidity;BME280_pressure;Samples;Min_cycle;Max_cycle;Signal;HPM_P1;HPM_P2
2023/06/01 00:01:53;;;;;;;7.47;2.63;;;;;;;;;;5024972;28;20018;-61
2023/06/01 00:04:18;;;;;;;7.40;2.58;;;;;;;;;;5021793;28;20026;-61
2023/06/01 00:06:43;;;;;;;6.03;2.50;;;;;;;;;;5034542;28;20500;-62
2023/06/01 00:09:09;;;;;;;7.80;2.67;;;;;;;;;;5028943;28;20493;-61
2023/06/01 00:11:34;;;;;;;5.72;2.42;;;;;;;;;;5027468;28;20411;-61
2023/06/01 00:13:59;;;;;;;5.07;2.17;;;;;;;;;;5023147;28;20022;-61
2023/06/01 00:16:24;;;;;;;8.60;2.80;;;;;;;;;;5025653;28;20039;-60
2023/06/01 00:18:52;;;;;;;6.60;2.50;;;;;;;;;;5026691;28;20045;-61
2023/06/01 00:21:18;;;;;;;7.10;2.47;;;;;;;;;;5028041;28;20409;-60
2023/06/01 00:23:43;;;;;;;5.90;2.33;;;;;;;;;;5030148;28;20021;-60
2023/06/01 00:26:08;;;;;;;6.15;2.65;;;;;;;;;;5025678;28;20500;-60
2023/06/01 00:28:34;;;;;;;6.88;2.50;;;;;;;;;;5016940;28;20482;-60
2023/06/01 00:30:59;;;;;;;6.65;2.70;;;;;;;;;;5019951;28;20030;-61
2023/06/01 00:33:24;;;;;;;5.20;2.30;;;;;;;;;;5021620;28;20401;-60
2023/06/01 00:35:49;;;;;;;6.43;2.67;;;;;;;;;;5021101;28;20032;-61
2023/06/01 00:38:14;;;;;;;8.17;2.60;;;;;;;;;;5033078;28;20038;-60
2023/06/01 00:40:40;;;;;;;9.30;2.40;;;;;;;;;;5028501;28;20060;-60
2023/06/01 00:43:05;;;;;;;7.37;2.53;;;;;;;;;;5022585;28;20071;-61
2023/06/01 00:45:30;;;;;;;7.13;2.50;;;;;;;;;;5027261;28;20507;-61
2023/06/01 00:47:55;;;;;;;6.90;2.58;;;;;;;;;;5026507;28;20440;-61
2023/06/01 00:50:21;;;;;;;6.53;2.63;;;;;;;;;;5025913;28;20029;-60
2023/06/01 00:52:48;;;;;;;7.05;2.90;;;;;;;;;;5026582;28;20028;-60
2023/06/01 00:55:13;;;;;;;10.32;2.30;;;;;;;;;;5026167;28;20022;-61
2023/06/01 00:57:39;;;;;;;6.80;2.40;;;;;;;;;;5025672;28;20042;-61
2023/06/01 01:00:10;;;;;;;9.55;2.45;;;;;;;;;;5021584;28;20110;-60
2023/06/01 01:02:37;;;;;;;4.68;2.30;;;;;;;;;;5026130;28;20030;-62
2023/06/01 01:05:02;;;;;;;5.85;2.40;;;;;;;;;;5020529;28;20175;-61
2023/06/01 01:07:38;;;;;;;7.50;2.53;;;;;;;;;;5027969;28;20037;-61
2023/06/01 01:10:22;;;;;;;6.07;2.42;;;;;;;;;;5022496;28;20029;-62
2023/06/01 01:12:50;;;;;;;8.32;2.67;;;;;;;;;;5020526;28;20026;-62
2023/06/01 01:15:27;;;;;;;5.38;2.60;;;;;;;;;;5027496;28;20032;-60
2023/06/01 01:18:01;;;;;;;6.93;2.53;;;;;;;;;;5016050;28;20111;-61
2023/06/01 01:20:34;;;;;;;6.30;2.22;;;;;;;;;;5022861;28;20021;-61
2023/06/01 01:23:05;;;;;;;6.30;2.53;;;;;;;;;;5027577;28;20044;-61
2023/06/01 01:25:47;;;;;;;5.80;2.53;;;;;;;;;;5029542;28;20737;-61
2023/06/01 01:28:27;;;;;;;5.55;2.30;;;;;;;;;;5016202;28;20049;-61
2023/06/01 01:30:53;;;;;;;6.47;2.80;;;;;;;;;;5019610;28;20021;-62
2023/06/01 01:33:19;;;;;;;5.55;2.17;;;;;;;;;;5020795;28;20021;-62
2023/06/01 01:35:45;;;;;;;7.80;2.50;;;;;;;;;;5023037;28;20013;-62
2023/06/01 01:38:10;;;;;;;5.72;2.17;;;;;;;;;;5022076;28;20040;-61
2023/06/01 01:40:35;;;;;;;7.50;2.50;;;;;;;;;;5019455;28;20021;-61
2023/06/01 01:43:01;;;;;;;6.72;2.60;;;;;;;;;;5027056;28;20022;-61
2023/06/01 01:45:26;;;;;;;6.50;2.47;;;;;;;;;;5026933;28;20428;-61
2023/06/01 01:47:59;;;;;;;6.20;2.30;;;;;;;;;;5022523;28;20147;-61
2023/06/01 01:50:27;;;;;;;5.93;2.53;;;;;;;;;;5022498;28;20029;-61
2023/06/01 01:52:53;;;;;;;7.43;2.45;;;;;;;;;;5020010;28;20026;-61
2023/06/01 01:55:23;;;;;;;7.70;2.80;;;;;;;;;;5015554;28;20108;-61
2023/06/01 01:57:48;;;;;;;7.53;2.60;;;;;;;;;;5020683;28;20030;-61
2023/06/01 02:00:14;;;;;;;6.87;2.50;;;;;;;;;;5029993;28;20079;-61
2023/06/01 02:02:39;;;;;;;5.97;2.47;;;;;;;;;;5021582;28;20610;-62
2023/06/01 02:05:05;;;;;;;6.10;2.22;;;;;;;;;;5024134;28;20022;-61
2023/06/01 02:07:30;;;;;;;5.97;2.63;;;;;;;;;;5026093;28;20025;-61
2023/06/01 02:09:55;;;;;;;6.57;2.40;;;;;;;;;;5019915;28;20018;-61
2023/06/01 02:12:21;;;;;;;7.55;2.40;;;;;;;;;;5014944;28;20026;-61
2023/06/01 02:14:46;;;;;;;5.70;2.43;;;;;;;;;;5024998;28;20095;-62
2023/06/01 02:17:11;;;;;;;7.22;2.38;;;;;;;;;;5027720;28;20041;-61
2023/06/01 02:19:36;;;;;;;8.38;2.92;;;;;;;;;;5013692;28;20726;-61
2023/06/01 02:22:01;;;;;;;9.90;3.13;;;;;;;;;;5032771;28;20017;-62
2023/06/01 02:24:26;;;;;;;7.67;2.83;;;;;;;;;;5025688;28;20013;-62
2023/06/01 02:26:53;;;;;;;6.18;2.70;;;;;;;;;;5024307;28;20068;-61
2023/06/01 02:29:21;;;;;;;8.45;2.92;;;;;;;;;;5024148;28;20014;-62
2023/06/01 02:31:47;;;;;;;7.32;2.40;;;;;;;;;;5030854;28;20029;-61
2023/06/01 02:34:12;;;;;;;7.23;2.50;;;;;;;;;;5028408;28;20014;-59
2023/06/01 02:36:37;;;;;;;6.82;2.35;;;;;;;;;;5028349;28;20446;-60
2023/06/01 02:39:02;;;;;;;8.68;2.72;;;;;;;;;;5032335;28;20065;-60
2023/06/01 02:41:28;;;;;;;6.10;2.57;;;;;;;;;;5022592;28;20020;-60
2023/06/01 02:43:53;;;;;;;5.77;2.50;;;;;;;;;;5029444;28;20049;-60
2023/06/01 02:46:19;;;;;;;8.17;2.80;;;;;;;;;;5029798;28;20072;-61
2023/06/01 02:48:44;;;;;;;9.25;2.50;;;;;;;;;;5020391;28;20025;-61
2023/06/01 02:51:09;;;;;;;5.65;2.40;;;;;;;;;;5032750;28;20068;-60
2023/06/01 02:53:35;;;;;;;5.73;2.40;;;;;;;;;;5030879;28;20421;-60
2023/06/01 02:56:00;;;;;;;8.87;3.03;;;;;;;;;;5027513;28;20030;-59
2023/06/01 02:58:25;;;;;;;5.93;2.72;;;;;;;;;;5028560;28;20408;-60
2023/06/01 03:00:50;;;;;;;5.60;2.50;;;;;;;;;;5028057;28;20053;-61
2023/06/01 03:03:16;;;;;;;6.25;2.72;;;;;;;;;;5030121;28;20087;-61
2023/06/01 03:05:42;;;;;;;7.65;2.80;;;;;;;;;;5033643;28;20449;-61
2023/06/01 03:08:08;;;;;;;7.00;2.42;;;;;;;;;;5018215;28;20385;-59
2023/06/01 03:10:33;;;;;;;7.05;2.65;;;;;;;;;;5021362;28;20032;-60
2023/06/01 03:12:58;;;;;;;9.23;3.38;;;;;;;;;;5030575;28;20044;-60
2023/06/01 03:15:23;;;;;;;9.77;3.00;;;;;;;;;;5031379;28;20030;-59
2023/06/01 03:17:48;;;;;;;7.15;2.78;;;;;;;;;;5029598;28;20172;-59
2023/06/01 03:20:16;;;;;;;6.68;2.58;;;;;;;;;;5027154;28;20021;-62
2023/06/01 03:22:42;;;;;;;6.50;2.53;;;;;;;;;;5028720;28;20026;-61
2023/06/01 03:25:07;;;;;;;5.97;2.50;;;;;;;;;;5032540;28;20020;-61
2023/06/01 03:27:32;;;;;;;6.63;2.40;;;;;;;;;;5030813;28;20033;-61
2023/06/01 03:29:58;;;;;;;5.97;2.40;;;;;;;;;;5031131;28;20025;-61
2023/06/01 03:32:23;;;;;;;6.75;2.60;;;;;;;;;;5025437;28;20009;-61
2023/06/01 03:34:48;;;;;;;6.00;2.55;;;;;;;;;;5026092;28;20104;-61
2023/06/01 03:37:13;;;;;;;7.88;2.85;;;;;;;;;;5022456;28;20512;-61
2023/06/01 03:39:39;;;;;;;5.27;2.30;;;;;;;;;;5027375;28;20085;-59
2023/06/01 03:42:04;;;;;;;6.95;2.45;;;;;;;;;;5032373;28;20017;-62
2023/06/01 03:44:29;;;;;;;7.13;2.97;;;;;;;;;;5027407;28;20142;-62
2023/06/01 03:46:55;;;;;;;4.75;2.40;;;;;;;;;;5020394;28;20121;-59
2023/06/01 03:49:20;;;;;;;7.07;2.50;;;;;;;;;;5029325;28;20445;-62
2023/06/01 03:51:45;;;;;;;6.88;2.60;;;;;;;;;;5030392;28;20377;-59
2023/06/01 03:54:10;;;;;;;5.30;2.40;;;;;;;;;;5030897;28;20508;-60
2023/06/01 03:56:35;;;;;;;6.50;2.28;;;;;;;;;;5036479;28;20041;-59
2023/06/01 03:59:01;;;;;;;6.13;2.33;;;;;;;;;;5038356;28;20031;-61
2023/06/01 04:01:28;;;;;;;7.65;2.53;;;;;;;;;;5029103;28;20033;-60
2023/06/01 04:03:55;;;;;;;6.43;2.10;;;;;;;;;;5028725;28;20053;-60
2023/06/01 04:06:20;;;;;;;;;;;;;;;;;;5029318;28;20075;-60
2023/06/01 04:08:50;;;;;;;7.10;2.20;;;;;;;;;;5027019;28;19909;-60
2023/06/01 04:11:16;;;;;;;5.95;2.40;;;;;;;;;;5019511;28;20017;-60
2023/06/01 04:13:42;;;;;;;7.10;2.70;;;;;;;;;;5026805;28;20040;-60
2023/06/01 04:16:07;;;;;;;8.25;2.60;;;;;;;;;;5028193;28;20017;-60
2023/06/01 04:18:32;;;;;;;9.60;3.30;;;;;;;;;;5022586;28;20053;-60
2023/06/01 04:20:57;;;;;;;6.28;2.70;;;;;;;;;;5031543;28;20124;-60
2023/06/01 04:23:22;;;;;;;9.07;2.97;;;;;;;;;;5033612;28;20400;-60
2023/06/01 04:25:50;;;;;;;6.73;2.83;;;;;;;;;;5027689;28;20036;-60
2023/06/01 04:28:16;;;;;;;9.82;3.42;;;;;;;;;;5017401;28;20347;-60
2023/06/01 04:30:44;;;;;;;8.85;2.92;;;;;;;;;;5020543;28;20587;-60
2023/06/01 04:33:09;;;;;;;7.47;2.70;;;;;;;;;;5014748;28;20029;-60
2023/06/01 04:35:36;;;;;;;6.65;2.67;;;;;;;;;;5016999;28;20090;-60
2023/06/01 04:38:02;;;;;;;6.43;2.45;;;;;;;;;;5010488;28;20036;-60
2023/06/01 04:40:27;;;;;;;7.63;2.75;;;;;;;;;;5023933;28;20025;-60
2023/06/01 04:42:55;;;;;;;7.72;3.10;;;;;;;;;;5025425;28;20772;-60
2023/06/01 04:45:20;;;;;;;7.03;2.60;;;;;;;;;;5027899;28;20029;-60
2023/06/01 04:47:46;;;;;;;8.60;2.50;;;;;;;;;;5013651;28;20024;-60
2023/06/01 04:50:12;;;;;;;6.82;2.47;;;;;;;;;;5017649;28;20475;-60
2023/06/01 04:52:37;;;;;;;7.32;2.88;;;;;;;;;;5018128;28;20642;-60
2023/06/01 04:55:04;;;;;;;6.97;2.75;;;;;;;;;;5019953;28;20029;-61
2023/06/01 04:57:29;;;;;;;7.63;2.70;;;;;;;;;;5016217;28;20119;-60
2023/06/01 04:59:56;;;;;;;5.83;2.63;;;;;;;;;;5008153;28;20492;-60
2023/06/01 05:02:22;;;;;;;7.18;2.65;;;;;;;;;;5012653;28;20044;-60
2023/06/01 05:04:47;;;;;;;6.57;2.70;;;;;;;;;;5009513;28;20030;-60
2023/06/01 05:07:13;;;;;;;8.18;2.60;;;;;;;;;;5022448;28;20025;-60
2023/06/01 05:09:38;;;;;;;6.80;2.47;;;;;;;;;;5009381;28;20393;-59
2023/06/01 05:12:03;;;;;;;6.75;2.60;;;;;;;;;;5024149;28;20185;-60
2023/06/01 05:14:29;;;;;;;6.00;2.45;;;;;;;;;;5012938;28;20102;-61
2023/06/01 05:16:55;;;;;;;6.67;2.80;;;;;;;;;;5019928;28;20235;-61
2023/06/01 05:19:21;;;;;;;9.38;2.70;;;;;;;;;;5018720;28;20040;-60
2023/06/01 05:21:47;;;;;;;7.03;2.83;;;;;;;;;;5012548;28;20022;-60
2023/06/01 05:24:12;;;;;;;6.63;2.67;;;;;;;;;;5015880;28;20021;-60
2023/06/01 05:26:37;;;;;;;6.85;2.58;;;;;;;;;;5020668;28;20032;-60
2023/06/01 05:29:03;;;;;;;6.97;2.95;;;;;;;;;;5026984;28;20665;-60
2023/06/01 05:31:29;;;;;;;7.53;2.75;;;;;;;;;;5023798;28;20124;-60
2023/06/01 05:33:55;;;;;;;8.27;2.90;;;;;;;;;;5027912;28;20549;-60
2023/06/01 05:36:20;;;;;;;7.38;2.95;;;;;;;;;;5018051;28;20028;-60
2023/06/01 05:38:46;;;;;;;7.20;2.58;;;;;;;;;;5029574;28;20033;-60
2023/06/01 05:41:11;;;;;;;6.43;2.85;;;;;;;;;;5021995;28;20057;-60
2023/06/01 05:43:36;;;;;;;7.85;2.95;;;;;;;;;;5026312;28;20022;-61
2023/06/01 05:46:01;;;;;;;7.68;2.65;;;;;;;;;;5030460;28;20037;-60
2023/06/01 05:48:26;;;;;;;8.23;2.80;;;;;;;;;;5024464;28;20030;-61
2023/06/01 05:50:52;;;;;;;6.45;2.85;;;;;;;;;;5011539;28;20030;-60
2023/06/01 05:53:17;;;;;;;6.93;3.00;;;;;;;;;;5016710;28;20040;-60
2023/06/01 05:55:42;;;;;;;7.63;2.60;;;;;;;;;;5025439;28;20541;-61
2023/06/01 05:58:07;;;;;;;12.00;2.92;;;;;;;;;;5026741;28;20039;-60
2023/06/01 06:00:35;;;;;;;12.30;3.00;;;;;;;;;;5021949;28;20068;-61
2023/06/01 06:03:00;;;;;;;7.20;2.75;;;;;;;;;;5018196;28;20026;-61
2023/06/01 06:05:25;;;;;;;6.30;2.80;;;;;;;;;;5030015;28;20018;-61
2023/06/01 06:07:50;;;;;;;8.30;2.60;;;;;;;;;;5026377;28;20034;-61
2023/06/01 06:10:15;;;;;;;7.83;3.30;;;;;;;;;;5023471;28;20040;-59
2023/06/01 06:12:40;;;;;;;5.97;2.67;;;;;;;;;;5027052;28;20040;-61
2023/06/01 06:15:06;;;;;;;8.15;2.63;;;;;;;;;;5017641;28;20563;-61
2023/06/01 06:17:31;;;;;;;12.82;3.13;;;;;;;;;;5020216;28;20025;-59
2023/06/01 06:19:57;;;;;;;8.68;2.70;;;;;;;;;;5029236;28;20017;-59
2023/06/01 06:22:22;;;;;;;9.93;3.05;;;;;;;;;;5018594;28;20025;-60
2023/06/01 06:24:47;;;;;;;7.43;2.67;;;;;;;;;;5017826;28;20466;-60
2023/06/01 06:27:12;;;;;;;8.50;2.80;;;;;;;;;;5016818;28;20026;-60
2023/06/01 06:29:38;;;;;;;7.00;2.63;;;;;;;;;;5010563;28;20034;-59
2023/06/01 06:32:03;;;;;;;8.60;2.90;;;;;;;;;;5013340;28;20598;-59
2023/06/01 06:34:35;;;;;;;10.50;3.03;;;;;;;;;;5023409;28;20025;-60
2023/06/01 06:37:00;;;;;;;10.25;2.72;;;;;;;;;;5022889;28;20033;-60
2023/06/01 06:39:25;;;;;;;9.77;2.50;;;;;;;;;;5010518;28;20022;-60
2023/06/01 06:41:50;;;;;;;8.10;3.10;;;;;;;;;;5012906;28;21347;-61
2023/06/01 06:44:15;;;;;;;6.65;2.63;;;;;;;;;;5011911;28;20477;-59
2023/06/01 06:46:40;;;;;;;8.00;3.20;;;;;;;;;;5021842;28;20036;-59
2023/06/01 06:49:06;;;;;;;8.43;2.63;;;;;;;;;;5027610;28;20044;-60
2023/06/01 06:51:32;;;;;;;8.73;3.10;;;;;;;;;;5014799;28;20036;-61
2023/06/01 06:53:58;;;;;;;9.53;3.03;;;;;;;;;;5006516;28;20076;-60
2023/06/01 06:56:23;;;;;;;7.38;2.50;;;;;;;;;;5022897;28;20055;-59
2023/06/01 06:58:48;;;;;;;10.82;2.50;;;;;;;;;;5015766;28;20062;-59
2023/06/01 07:01:13;;;;;;;8.57;2.40;;;;;;;;;;5019342;28;20096;-59
2023/06/01 07:03:40;;;;;;;7.07;2.35;;;;;;;;;;5024772;28;20020;-61
2023/06/01 07:06:05;;;;;;;6.88;2.05;;;;;;;;;;5018117;28;20063;-60
2023/06/01 07:08:34;;;;;;;5.37;2.10;;;;;;;;;;5030670;28;20028;-61
2023/06/01 07:10:59;;;;;;;6.78;2.35;;;;;;;;;;5032549;28;20075;-61
2023/06/01 07:13:24;;;;;;;6.00;2.53;;;;;;;;;;5032725;28;20585;-61
2023/06/01 07:15:50;;;;;;;8.90;2.75;;;;;;;;;;5032743;28;20021;-60
2023/06/01 07:18:15;;;;;;;6.95;2.30;;;;;;;;;;5026707;28;20048;-60
2023/06/01 07:20:40;;;;;;;5.97;2.47;;;;;;;;;;5029224;28;20025;-61
2023/06/01 07:23:06;;;;;;;5.97;2.20;;;;;;;;;;5031552;28;20052;-61
2023/06/01 07:25:31;;;;;;;10.30;2.53;;;;;;;;;;5032725;28;20033;-60
2023/06/01 07:27:56;;;;;;;8.07;2.38;;;;;;;;;;5032634;28;20021;-61
2023/06/01 07:30:21;;;;;;;7.07;2.77;;;;;;;;;;5032483;28;20079;-61
2023/06/01 07:32:47;;;;;;;7.28;2.90;;;;;;;;;;5028255;28;20528;-61
2023/06/01 07:35:12;;;;;;;8.00;2.40;;;;;;;;;;5022253;28;20083;-61
2023/06/01 07:37:37;;;;;;;7.45;2.30;;;;;;;;;;5018233;28;20109;-61
2023/06/01 07:40:05;;;;;;;8.37;2.77;;;;;;;;;;5021896;28;20026;-60
2023/06/01 07:42:30;;;;;;;7.35;2.35;;;;;;;;;;5028975;28;20435;-59
2023/06/01 07:44:55;;;;;;;6.60;2.77;;;;;;;;;;5022163;28;20105;-59
2023/06/01 07:47:21;;;;;;;7.87;2.60;;;;;;;;;;5032324;28;20028;-60
2023/06/01 07:49:46;;;;;;;7.47;2.53;;;;;;;;;;5019789;28;20014;-59
2023/06/01 07:52:11;;;;;;;9.13;2.55;;;;;;;;;;5013307;28;20358;-59
2023/06/01 07:54:36;;;;;;;6.20;2.10;;;;;;;;;;5020572;28;20037;-59
2023/06/01 07:57:04;;;;;;;7.90;2.50;;;;;;;;;;5030175;28;20018;-61
2023/06/01 07:59:29;;;;;;;6.70;2.33;;;;;;;;;;5032398;28;20056;-59
2023/06/01 08:01:55;;;;;;;7.68;2.40;;;;;;;;;;5027117;28;20490;-60
2023/06/01 08:04:21;;;;;;;8.02;2.58;;;;;;;;;;5032112;28;20101;-60
2023/06/01 08:06:46;;;;;;;7.03;2.10;;;;;;;;;;5026573;28;20109;-60
2023/06/01 08:09:12;;;;;;;11.55;2.58;;;;;;;;;;5016680;28;20010;-59
2023/06/01 08:11:37;;;;;;;9.43;2.50;;;;;;;;;;5031475;28;20500;-60
2023/06/01 08:14:07;;;;;;;10.43;2.97;;;;;;;;;;5027834;28;20021;-60
2023/06/01 08:16:32;;;;;;;8.88;2.40;;;;;;;;;;5032113;28;20013;-60
2023/06/01 08:18:58;;;;;;;10.15;2.85;;;;;;;;;;5031587;28;20076;-59
2023/06/01 08:21:24;;;;;;;10.37;2.90;;;;;;;;;;5031721;28;20448;-59
2023/06/01 08:23:51;;;;;;;6.43;2.22;;;;;;;;;;5021002;28;20447;-59
2023/06/01 08:26:16;;;;;;;7.60;2.17;;;;;;;;;;5025936;28;20087;-59
2023/06/01 08:28:41;;;;;;;6.80;1.97;;;;;;;;;;5031391;28;20431;-60
2023/06/01 08:31:06;;;;;;;8.33;2.20;;;;;;;;;;5023120;28;20034;-58
2023/06/01 08:33:31;;;;;;;6.88;2.17;;;;;;;;;;5022448;28;20030;-61
2023/06/01 08:35:57;;;;;;;8.80;2.63;;;;;;;;;;5029618;28;20407;-59
2023/06/01 08:38:22;;;;;;;6.87;2.23;;;;;;;;;;5031760;28;20026;-62
2023/06/01 08:40:47;;;;;;;6.20;2.00;;;;;;;;;;5031322;28;20071;-58
2023/06/01 08:43:17;;;;;;;7.78;1.73;;;;;;;;;;5025853;28;20171;-59
2023/06/01 08:45:43;;;;;;;6.97;2.05;;;;;;;;;;5027763;28;20370;-62
2023/06/01 08:48:08;;;;;;;5.85;2.25;;;;;;;;;;5030012;28;20029;-59
2023/06/01 08:50:34;;;;;;;9.27;2.30;;;;;;;;;;5030592;28;20045;-60
2023/06/01 08:52:59;;;;;;;7.18;1.90;;;;;;;;;;5030919;28;20040;-59
2023/06/01 08:55:25;;;;;;;6.93;2.30;;;;;;;;;;5024240;28;20033;-59
2023/06/01 08:57:50;;;;;;;8.07;2.15;;;;;;;;;;5026263;28;20029;-60
2023/06/01 09:00:17;;;;;;;8.50;2.10;;;;;;;;;;5021088;28;20041;-59
2023/06/01 09:02:42;;;;;;;8.00;2.25;;;;;;;;;;5016802;28;20030;-60
2023/06/01 09:05:07;;;;;;;8.15;2.60;;;;;;;;;;5028414;28;20124;-59
2023/06/01 09:07:34;;;;;;;7.47;2.70;;;;;;;;;;5025895;28;20083;-59
2023/06/01 09:09:59;;;;;;;6.78;2.13;;;;;;;;;;5030209;28;20424;-59
2023/06/01 09:12:25;;;;;;;6.40;2.20;;;;;;;;;;5030952;28;20018;-59
2023/06/01 09:15:06;;;;;;;7.32;2.13;;;;;;;;;;5031161;28;20029;-61
2023/06/01 09:17:31;;;;;;;6.07;2.10;;;;;;;;;;5030699;28;20021;-59
2023/06/01 09:19:56;;;;;;;6.27;1.90;;;;;;;;;;5026552;28;20022;-59
2023/06/01 09:22:22;;;;;;;5.67;2.00;;;;;;;;;;5030300;28;20017;-60
2023/06/01 09:24:57;;;;;;;5.75;2.00;;;;;;;;;;5031136;28;20554;-61
2023/06/01 09:27:23;;;;;;;6.25;2.15;;;;;;;;;;5026669;28;20026;-61
2023/06/01 09:29:55;;;;;;;9.25;2.20;;;;;;;;;;5016839;28;20036;-58
2023/06/01 09:32:21;;;;;;;5.53;1.88;;;;;;;;;;5030904;28;20030;-61
2023/06/01 09:34:46;;;;;;;;;;;;;;;;;;5022176;28;20052;-61
2023/06/01 09:37:12;;;;;;;6.85;2.10;;;;;;;;;;5030536;28;20384;-61
2023/06/01 09:39:37;;;;;;;5.30;1.92;;;;;;;;;;5029923;28;20516;-61
2023/06/01 09:42:03;;;;;;;4.40;2.00;;;;;;;;;;5022612;28;20038;-61
2023/06/01 09:44:32;;;;;;;5.22;2.10;;;;;;;;;;5023458;28;20422;-60
2023/06/01 09:46:58;;;;;;;4.35;1.50;;;;;;;;;;5023192;28;20100;-60
2023/06/01 09:49:25;;;;;;;5.35;1.70;;;;;;;;;;5029785;28;20033;-61
2023/06/01 09:52:08;;;;;;;4.85;1.58;;;;;;;;;;5029258;28;20150;-60
2023/06/01 09:54:34;;;;;;;5.80;1.65;;;;;;;;;;5025526;28;20116;-60
2023/06/01 09:57:00;;;;;;;6.00;1.60;;;;;;;;;;5021209;28;20026;-59
2023/06/01 09:59:28;;;;;;;5.22;2.00;;;;;;;;;;5029423;28;20036;-60
2023/06/01 10:01:54;;;;;;;7.78;1.90;;;;;;;;;;5030251;28;20087;-61
2023/06/01 10:04:23;;;;;;;8.13;2.10;;;;;;;;;;5030385;28;20064;-60
2023/06/01 10:06:51;;;;;;;6.43;2.00;;;;;;;;;;5024700;28;20022;-61
2023/06/01 10:09:19;;;;;;;7.22;1.85;;;;;;;;;;5022910;28;20021;-59
2023/06/01 10:11:44;;;;;;;6.30;1.63;;;;;;;;;;5029628;28;20029;-60
2023/06/01 10:14:10;;;;;;;6.28;1.80;;;;;;;;;;5010187;28;20040;-59
2023/06/01 10:16:35;;;;;;;4.75;1.52;;;;;;;;;;5010602;28;20045;-60
2023/06/01 10:19:01;;;;;;;6.57;1.80;;;;;;;;;;5009850;28;20022;-59
2023/06/01 10:21:26;;;;;;;7.05;1.80;;;;;;;;;;5010487;28;20307;-60
2023/06/01 10:23:51;;;;;;;8.20;2.13;;;;;;;;;;5028085;28;20072;-60
2023/06/01 10:26:17;;;;;;;6.93;2.10;;;;;;;;;;5023085;28;20018;-60
2023/06/01 10:28:44;;;;;;;5.97;2.05;;;;;;;;;;5023555;28;20116;-61
2023/06/01 10:31:31;;;;;;;7.68;1.90;;;;;;;;;;5015307;28;20075;-61
2023/06/01 10:33:57;;;;;;;7.45;1.98;;;;;;;;;;5030228;28;20486;-61
2023/06/01 10:36:23;;;;;;;7.00;1.92;;;;;;;;;;5034107;28;20029;-61
2023/06/01 10:38:48;;;;;;;6.27;1.73;;;;;;;;;;5033086;28;20022;-60
2023/06/01 10:41:30;;;;;;;6.57;2.00;;;;;;;;;;5033974;28;20022;-60
2023/06/01 10:43:55;;;;;;;8.15;2.10;;;;;;;;;;5032308;28;20024;-61
2023/06/01 10:46:32;;;;;;;6.35;2.10;;;;;;;;;;5033811;28;20033;-61
2023/06/01 10:48:58;;;;;;;4.55;1.67;;;;;;;;;;5032289;28;20024;-61
2023/06/01 10:51:27;;;;;;;5.97;1.90;;;;;;;;;;5034390;28;20092;-61
2023/06/01 10:53:53;;;;;;;7.13;2.10;;;;;;;;;;5033755;28;20049;-60
2023/06/01 10:56:20;;;;;;;5.25;1.85;;;;;;;;;;5033499;28;20049;-60
2023/06/01 10:58:45;;;;;;;6.82;2.17;;;;;;;;;;5028285;28;20489;-60
2023/06/01 11:01:17;;;;;;;8.85;2.10;;;;;;;;;;5019830;28;20071;-59
2023/06/01 11:03:44;;;;;;;6.78;2.08;;;;;;;;;;5032569;28;20037;-59
2023/06/01 11:06:22;;;;;;;6.07;2.10;;;;;;;;;;5033190;28;20029;-59
2023/06/01 11:08:47;;;;;;;7.07;1.80;;;;;;;;;;5032624;28;20437;-59
2023/06/01 11:11:13;;;;;;;7.45;2.10;;;;;;;;;;5031611;28;20421;-61
2023/06/01 11:13:39;;;;;;;7.00;1.90;;;;;;;;;;5027412;28;20052;-61
2023/06/01 11:16:04;;;;;;;6.93;2.10;;;;;;;;;;5032346;28;20083;-60
2023/06/01 11:18:42;;;;;;;6.53;1.90;;;;;;;;;;5032643;28;20034;-61
2023/06/01 11:21:15;;;;;;;6.75;1.85;;;;;;;;;;5033078;28;20029;-60
2023/06/01 11:23:40;;;;;;;8.60;1.90;;;;;;;;;;5032939;28;20095;-60
2023/06/01 11:26:07;;;;;;;6.57;2.03;;;;;;;;;;5030227;28;20052;-60
2023/06/01 11:28:32;;;;;;;5.32;1.85;;;;;;;;;;5024649;28;20068;-60
2023/06/01 11:31:00;;;;;;;4.80;1.67;;;;;;;;;;5030771;28;20120;-61
2023/06/01 11:33:28;;;;;;;10.07;2.17;;;;;;;;;;5032601;28;20079;-59
2023/06/01 11:36:00;;;;;;;4.70;1.90;;;;;;;;;;5032833;28;20325;-59
2023/06/01 11:38:32;;;;;;;5.85;2.05;;;;;;;;;;5032591;28;20427;-59
2023/06/01 11:40:58;;;;;;;6.65;2.20;;;;;;;;;;5032659;28;20045;-59
2023/06/01 11:43:30;;;;;;;6.10;2.20;;;;;;;;;;5025935;28;20056;-59
2023/06/01 11:45:59;;;;;;;6.18;1.90;;;;;;;;;;5032358;28;20011;-60
2023/06/01 11:48:24;;;;;;;7.82;2.03;;;;;;;;;;5032851;28;20017;-61
2023/06/01 11:50:49;;;;;;;7.07;2.28;;;;;;;;;;5032513;28;20079;-58
2023/06/01 11:53:15;;;;;;;8.27;2.28;;;;;;;;;;5032560;28;20032;-60
2023/06/01 11:55:47;;;;;;;5.65;2.05;;;;;;;;;;5032584;28;20021;-61
2023/06/01 11:58:12;;;;;;;6.80;2.15;;;;;;;;;;5023182;28;20034;-59
2023/06/01 12:00:38;;;;;;;6.43;2.20;;;;;;;;;;5027000;28;20028;-59
2023/06/01 12:03:09;;;;;;;6.53;2.13;;;;;;;;;;5032072;28;20028;-60
2023/06/01 12:05:37;;;;;;;6.20;2.10;;;;;;;;;;5032273;28;20480;-60
2023/06/01 12:08:03;;;;;;;8.20;2.42;;;;;;;;;;5026836;28;20485;-60
2023/06/01 12:10:28;;;;;;;5.53;2.40;;;;;;;;;;5023633;28;20018;-59
2023/06/01 12:12:53;;;;;;;6.83;2.07;;;;;;;;;;5031948;28;20029;-58
2023/06/01 12:15:19;;;;;;;4.87;2.10;;;;;;;;;;5033834;28;20021;-59
2023/06/01 12:17:50;;;;;;;6.20;2.15;;;;;;;;;;5033578;28;20033;-60
2023/06/01 12:20:31;;;;;;;5.70;2.15;;;;;;;;;;5028897;28;20013;-59
2023/06/01 12:22:56;;;;;;;5.57;1.98;;;;;;;;;;5034297;28;20021;-60
2023/06/01 12:25:22;;;;;;;6.28;2.13;;;;;;;;;;5031840;28;20017;-60
2023/06/01 12:27:59;;;;;;;8.90;2.30;;;;;;;;;;5028058;28;20022;-60
2023/06/01 12:30:25;;;;;;;7.20;2.63;;;;;;;;;;5032569;28;20049;-59
2023/06/01 12:32:50;;;;;;;6.77;2.57;;;;;;;;;;5031216;28;20055;-60
2023/06/01 12:35:17;;;;;;;7.65;2.40;;;;;;;;;;5037015;28;20452;-60
2023/06/01 12:37:43;;;;;;;8.00;2.70;;;;;;;;;;5024454;28;20083;-61
2023/06/01 12:40:09;;;;;;;7.20;2.45;;;;;;;;;;5025008;28;20018;-59
2023/06/01 12:42:37;;;;;;;;;;;;;;;;;;5022006;28;20026;-60
2023/06/01 12:45:02;;;;;;;6.05;2.42;;;;;;;;;;5026337;28;19917;-62
2023/06/01 12:47:34;;;;;;;6.32;2.33;;;;;;;;;;5022711;28;20112;-59
2023/06/01 12:50:03;;;;;;;6.78;2.60;;;;;;;;;;5028690;28;20028;-59
2023/06/01 12:52:28;;;;;;;6.13;2.63;;;;;;;;;;5022028;28;20498;-59
2023/06/01 12:54:53;;;;;;;6.60;2.63;;;;;;;;;;5025775;28;20469;-60
2023/06/01 12:57:18;;;;;;;7.25;2.70;;;;;;;;;;5031726;28;20013;-60
2023/06/01 12:59:44;;;;;;;6.40;2.50;;;;;;;;;;5025094;28;20045;-60
2023/06/01 13:02:09;;;;;;;;;;;;;;;;;;5028700;28;20021;-60
2023/06/01 13:04:34;;;;;;;7.20;3.00;;;;;;;;;;5026832;28;19996;-62
2023/06/01 13:06:59;;;;;;;7.57;3.20;;;;;;;;;;5018237;28;20706;-60
2023/06/01 13:09:25;;;;;;;8.23;3.00;;;;;;;;;;5019014;28;20022;-61
2023/06/01 13:11:51;;;;;;;8.77;2.90;;;;;;;;;;5029988;28;20021;-60
2023/06/01 13:14:16;;;;;;;;;;;;;;;;;;5025234;28;20041;-59
2023/06/01 13:16:42;;;;;;;6.70;2.78;;;;;;;;;;5027553;28;20303;-59
2023/06/01 13:19:08;;;;;;;7.68;2.90;;;;;;;;;;5024703;28;20107;-59
2023/06/01 13:21:33;;;;;;;7.63;3.20;;;;;;;;;;5030753;28;20048;-59
2023/06/01 13:23:59;;;;;;;6.93;3.42;;;;;;;;;;5030588;28;20017;-59
2023/06/01 13:26:25;;;;;;;8.03;3.27;;;;;;;;;;5030659;28;20049;-59
2023/06/01 13:28:50;;;;;;;10.68;3.03;;;;;;;;;;5030270;28;20467;-60
2023/06/01 13:31:15;;;;;;;10.20;3.10;;;;;;;;;;5030294;28;20096;-61
2023/06/01 13:33:40;;;;;;;6.15;3.22;;;;;;;;;;5022026;28;20560;-61
2023/06/01 13:36:06;;;;;;;7.93;3.35;;;;;;;;;;5026016;28;20072;-59
2023/06/01 13:38:31;;;;;;;8.25;3.45;;;;;;;;;;5029825;28;20025;-61
2023/06/01 13:40:56;;;;;;;8.27;3.33;;;;;;;;;;5030200;28;20121;-61
2023/06/01 13:43:21;;;;;;;7.60;3.50;;;;;;;;;;5026927;28;20407;-61
2023/06/01 13:45:46;;;;;;;9.20;3.30;;;;;;;;;;5030249;28;20449;-61
2023/06/01 13:48:11;;;;;;;8.30;3.50;;;;;;;;;;5021882;28;20029;-61
2023/06/01 13:50:37;;;;;;;7.32;3.53;;;;;;;;;;5029719;28;20018;-61
2023/06/01 13:53:05;;;;;;;7.88;3.88;;;;;;;;;;5026506;28;20034;-61
2023/06/01 13:55:30;;;;;;;9.93;4.00;;;;;;;;;;5020720;28;20081;-61
2023/06/01 13:57:55;;;;;;;7.77;3.93;;;;;;;;;;5028047;28;20024;-61
2023/06/01 14:00:20;;;;;;;10.20;4.25;;;;;;;;;;5014856;28;20038;-60
2023/06/01 14:02:46;;;;;;;10.20;4.40;;;;;;;;;;5016914;28;20018;-60
2023/06/01 14:05:12;;;;;;;7.53;3.97;;;;;;;;;;5026793;28;20017;-59
2023/06/01 14:07:37;;;;;;;7.55;3.80;;;;;;;;;;5028827;28;20038;-60
2023/06/01 14:10:03;;;;;;;7.63;4.30;;;;;;;;;;5029688;28;20027;-60
2023/06/01 14:12:28;;;;;;;10.48;4.80;;;;;;;;;;5024978;28;20029;-60
2023/06/01 14:14:53;;;;;;;8.18;4.45;;;;;;;;;;5029089;28;20022;-60
2023/06/01 14:17:18;;;;;;;8.30;4.40;;;;;;;;;;5027966;28;20130;-61
2023/06/01 14:19:43;;;;;;;7.43;4.25;;;;;;;;;;5026257;28;20057;-60
2023/06/01 14:22:09;;;;;;;8.57;4.80;;;;;;;;;;5028389;28;20485;-61
2023/06/01 14:24:34;;;;;;;13.23;4.40;;;;;;;;;;5028605;28;20435;-61
2023/06/01 14:26:59;;;;;;;8.00;4.40;;;;;;;;;;5032286;28;20029;-60
2023/06/01 14:29:24;;;;;;;8.57;4.10;;;;;;;;;;5033811;28;20022;-61
2023/06/01 14:31:50;;;;;;;8.20;3.90;;;;;;;;;;5032928;28;20017;-58
2023/06/01 14:34:15;;;;;;;9.55;4.18;;;;;;;;;;5033835;28;20120;-61
2023/06/01 14:36:41;;;;;;;9.43;3.90;;;;;;;;;;5033712;28;20536;-60
2023/06/01 14:39:06;;;;;;;8.77;3.78;;;;;;;;;;5033224;28;20030;-60